sensor_id;sensor_type;location;lat;lon;timestamp;P1;durP1;ratioP1;P2;durP2;ratioP2
50647;SDS011;36617;52.002;6.034;2023-03-24T00:01:08;61.40;;;42.67;;
50647;SDS011;36617;52.002;6.034;2023-03-24T00:03:33;61.03;;;43.30;;
50647;SDS011;36617;52.002;6.034;2023-03-24T00:06:01;59.88;;;41.70;;
50647;SDS011;36617;52.002;6.034;2023-03-24T00:08:30;60.95;;;42.75;;
50647;SDS011;36617;52.002;6.034;2023-03-24T00:10:59;58.03;;;40.92;;
50647;SDS011;36617;52.002;6.034;2023-03-24T00:13:25;58.88;;;41.33;;
50647;SDS011;36617;52.002;6.034;2023-03-24T00:15:50;55.93;;;39.50;;
50647;SDS011;36617;52.002;6.034;2023-03-24T00:18:16;53.73;;;37.67;;
50647;SDS011;36617;52.002;6.034;2023-03-24T00:20:43;55.63;;;38.88;;
50647;SDS011;36617;52.002;6.034;2023-03-24T00:23:09;53.17;;;37.83;;
50647;SDS011;36617;52.002;6.034;2023-03-24T00:25:36;55.90;;;38.13;;
50647;SDS011;36617;52.002;6.034;2023-03-24T00:28:04;50.13;;;35.67;;
50647;SDS011;36617;52.002;6.034;2023-03-24T00:30:30;50.63;;;35.63;;
50647;SDS011;36617;52.002;6.034;2023-03-24T00:32:55;47.80;;;33.53;;
50647;SDS011;36617;52.002;6.034;2023-03-24T00:35:22;48.60;;;34.78;;
50647;SDS011;36617;52.002;6.034;2023-03-24T00:37:47;47.03;;;34.17;;
50647;SDS011;36617;52.002;6.034;2023-03-24T00:40:16;45.40;;;32.20;;
50647;SDS011;36617;52.002;6.034;2023-03-24T00:42:42;46.80;;;32.83;;
50647;SDS011;36617;52.002;6.034;2023-03-24T00:45:11;47.45;;;32.50;;
50647;SDS011;36617;52.002;6.034;2023-03-24T00:47:37;42.63;;;30.70;;
50647;SDS011;36617;52.002;6.034;2023-03-24T00:50:06;43.33;;;30.40;;
50647;SDS011;36617;52.002;6.034;2023-03-24T00:52:31;41.50;;;30.27;;
50647;SDS011;36617;52.002;6.034;2023-03-24T00:54:58;42.47;;;29.80;;
50647;SDS011;36617;52.002;6.034;2023-03-24T00:57:25;38.83;;;27.38;;
50647;SDS011;36617;52.002;6.034;2023-03-24T00:59:54;39.53;;;28.23;;
50647;SDS011;36617;52.002;6.034;2023-03-24T01:02:21;38.67;;;26.63;;
50647;SDS011;36617;52.002;6.034;2023-03-24T01:04:54;38.30;;;27.00;;
50647;SDS011;36617;52.002;6.034;2023-03-24T01:07:20;39.83;;;28.35;;
50647;SDS011;36617;52.002;6.034;2023-03-24T01:09:46;38.08;;;26.80;;
50647;SDS011;36617;52.002;6.034;2023-03-24T01:14:49;37.43;;;26.30;;
50647;SDS011;36617;52.002;6.034;2023-03-24T01:17:15;37.07;;;26.33;;
50647;SDS011;36617;52.002;6.034;2023-03-24T01:19:40;37.63;;;25.93;;
50647;SDS011;36617;52.002;6.034;2023-03-24T01:22:06;35.22;;;24.83;;
50647;SDS011;36617;52.002;6.034;2023-03-24T01:24:32;35.22;;;24.73;;
50647;SDS011;36617;52.002;6.034;2023-03-24T01:26:57;33.67;;;23.55;;
50647;SDS011;36617;52.002;6.034;2023-03-24T01:29:22;33.03;;;23.17;;
50647;SDS011;36617;52.002;6.034;2023-03-24T01:31:47;32.63;;;22.57;;
50647;SDS011;36617;52.002;6.034;2023-03-24T01:34:13;31.60;;;23.10;;
50647;SDS011;36617;52.002;6.034;2023-03-24T01:36:38;33.37;;;23.10;;
50647;SDS011;36617;52.002;6.034;2023-03-24T01:39:03;31.53;;;22.10;;
50647;SDS011;36617;52.002;6.034;2023-03-24T01:41:31;31.10;;;22.13;;
50647;SDS011;36617;52.002;6.034;2023-03-24T01:43:57;32.00;;;22.60;;
50647;SDS011;36617;52.002;6.034;2023-03-24T01:46:23;30.67;;;21.20;;
50647;SDS011;36617;52.002;6.034;2023-03-24T01:51:26;30.17;;;21.03;;
50647;SDS011;36617;52.002;6.034;2023-03-24T01:53:56;29.42;;;20.55;;
50647;SDS011;36617;52.002;6.034;2023-03-24T01:56:22;29.90;;;21.30;;
50647;SDS011;36617;52.002;6.034;2023-03-24T01:58:51;28.38;;;20.25;;
50647;SDS011;36617;52.002;6.034;2023-03-24T02:01:17;27.37;;;19.40;;
50647;SDS011;36617;52.002;6.034;2023-03-24T02:03:43;26.90;;;19.02;;
50647;SDS011;36617;52.002;6.034;2023-03-24T02:06:08;25.77;;;18.83;;
50647;SDS011;36617;52.002;6.034;2023-03-24T02:11:19;25.17;;;17.80;;
50647;SDS011;36617;52.002;6.034;2023-03-24T02:13:44;26.50;;;17.77;;
50647;SDS011;36617;52.002;6.034;2023-03-24T02:24:55;24.45;;;16.95;;
50647;SDS011;36617;52.002;6.034;2023-03-24T02:27:43;23.00;;;16.10;;
50647;SDS011;36617;52.002;6.034;2023-03-24T02:37:53;22.20;;;15.30;;
50647;SDS011;36617;52.002;6.034;2023-03-24T02:40:25;21.48;;;14.82;;
50647;SDS011;36617;52.002;6.034;2023-03-24T02:43:14;21.10;;;14.32;;
50647;SDS011;36617;52.002;6.034;2023-03-24T02:48:10;19.37;;;13.63;;
50647;SDS011;36617;52.002;6.034;2023-03-24T02:50:39;18.65;;;13.23;;
50647;SDS011;36617;52.002;6.034;2023-03-24T02:53:06;19.48;;;13.15;;
50647;SDS011;36617;52.002;6.034;2023-03-24T03:00:51;17.98;;;12.48;;
50647;SDS011;36617;52.002;6.034;2023-03-24T03:03:27;16.90;;;11.13;;
50647;SDS011;36617;52.002;6.034;2023-03-24T03:05:56;16.08;;;11.07;;
50647;SDS011;36617;52.002;6.034;2023-03-24T03:08:23;16.40;;;11.07;;
50647;SDS011;36617;52.002;6.034;2023-03-24T03:10:51;16.77;;;11.63;;
50647;SDS011;36617;52.002;6.034;2023-03-24T03:13:19;16.13;;;11.20;;
50647;SDS011;36617;52.002;6.034;2023-03-24T03:15:47;16.63;;;11.15;;
50647;SDS011;36617;52.002;6.034;2023-03-24T03:18:15;16.10;;;11.07;;
50647;SDS011;36617;52.002;6.034;2023-03-24T03:20:43;16.40;;;11.07;;
50647;SDS011;36617;52.002;6.034;2023-03-24T03:23:14;15.80;;;10.70;;
50647;SDS011;36617;52.002;6.034;2023-03-24T03:25:42;15.50;;;10.68;;
50647;SDS011;36617;52.002;6.034;2023-03-24T03:28:10;15.18;;;9.85;;
50647;SDS011;36617;52.002;6.034;2023-03-24T03:30:38;15.20;;;9.95;;
50647;SDS011;36617;52.002;6.034;2023-03-24T03:33:09;13.70;;;9.02;;
50647;SDS011;36617;52.002;6.034;2023-03-24T03:41:18;14.35;;;9.25;;
50647;SDS011;36617;52.002;6.034;2023-03-24T03:43:44;14.05;;;9.68;;
50647;SDS011;36617;52.002;6.034;2023-03-24T03:46:11;14.68;;;9.43;;
50647;SDS011;36617;52.002;6.034;2023-03-24T03:48:36;14.37;;;9.63;;
50647;SDS011;36617;52.002;6.034;2023-03-24T03:51:02;14.20;;;9.75;;
50647;SDS011;36617;52.002;6.034;2023-03-24T03:53:30;14.70;;;9.95;;
50647;SDS011;36617;52.002;6.034;2023-03-24T03:55:58;13.70;;;8.80;;
50647;SDS011;36617;52.002;6.034;2023-03-24T03:58:23;12.93;;;8.33;;
50647;SDS011;36617;52.002;6.034;2023-03-24T04:00:52;12.75;;;8.27;;
50647;SDS011;36617;52.002;6.034;2023-03-24T04:06:02;12.82;;;7.75;;
50647;SDS011;36617;52.002;6.034;2023-03-24T04:08:34;11.43;;;7.10;;
50647;SDS011;36617;52.002;6.034;2023-03-24T04:21:44;11.98;;;7.47;;
50647;SDS011;36617;52.002;6.034;2023-03-24T04:32:16;11.27;;;6.72;;
50647;SDS011;36617;52.002;6.034;2023-03-24T04:34:48;10.80;;;7.03;;
50647;SDS011;36617;52.002;6.034;2023-03-24T04:37:19;10.98;;;6.40;;
50647;SDS011;36617;52.002;6.034;2023-03-24T04:39:46;10.98;;;6.63;;
50647;SDS011;36617;52.002;6.034;2023-03-24T04:42:13;10.10;;;6.00;;
50647;SDS011;36617;52.002;6.034;2023-03-24T04:44:41;11.20;;;6.85;;
50647;SDS011;36617;52.002;6.034;2023-03-24T04:47:07;11.40;;;6.60;;
50647;SDS011;36617;52.002;6.034;2023-03-24T04:49:36;10.80;;;6.50;;
50647;SDS011;36617;52.002;6.034;2023-03-24T04:52:01;10.07;;;5.97;;
50647;SDS011;36617;52.002;6.034;2023-03-24T04:54:26;10.33;;;5.80;;
50647;SDS011;36617;52.002;6.034;2023-03-24T04:56:52;10.07;;;5.80;;
50647;SDS011;36617;52.002;6.034;2023-03-24T04:59:18;10.70;;;5.82;;
50647;SDS011;36617;52.002;6.034;2023-03-24T05:01:44;10.43;;;5.65;;
50647;SDS011;36617;52.002;6.034;2023-03-24T05:04:19;9.98;;;6.10;;
50647;SDS011;36617;52.002;6.034;2023-03-24T05:06:45;10.07;;;5.90;;
50647;SDS011;36617;52.002;6.034;2023-03-24T05:09:16;9.38;;;5.45;;
50647;SDS011;36617;52.002;6.034;2023-03-24T05:11:42;10.45;;;5.85;;
50647;SDS011;36617;52.002;6.034;2023-03-24T05:14:07;10.52;;;5.43;;
50647;SDS011;36617;52.002;6.034;2023-03-24T05:16:32;10.20;;;5.20;;
50647;SDS011;36617;52.002;6.034;2023-03-24T05:18:57;9.57;;;5.10;;
50647;SDS011;36617;52.002;6.034;2023-03-24T05:21:23;8.77;;;5.03;;
50647;SDS011;36617;52.002;6.034;2023-03-24T05:23:48;9.63;;;5.17;;
50647;SDS011;36617;52.002;6.034;2023-03-24T05:26:13;9.53;;;5.23;;
50647;SDS011;36617;52.002;6.034;2023-03-24T05:28:38;9.53;;;5.10;;
50647;SDS011;36617;52.002;6.034;2023-03-24T05:31:03;8.43;;;4.67;;
50647;SDS011;36617;52.002;6.034;2023-03-24T05:33:29;9.50;;;5.20;;
50647;SDS011;36617;52.002;6.034;2023-03-24T05:35:54;9.90;;;4.90;;
50647;SDS011;36617;52.002;6.034;2023-03-24T05:38:20;9.70;;;4.30;;
50647;SDS011;36617;52.002;6.034;2023-03-24T05:40:45;9.27;;;4.57;;
50647;SDS011;36617;52.002;6.034;2023-03-24T05:43:10;9.13;;;4.30;;
50647;SDS011;36617;52.002;6.034;2023-03-24T05:45:36;9.03;;;4.30;;
50647;SDS011;36617;52.002;6.034;2023-03-24T05:48:01;9.90;;;4.90;;
50647;SDS011;36617;52.002;6.034;2023-03-24T05:50:27;9.30;;;4.77;;
50647;SDS011;36617;52.002;6.034;2023-03-24T05:52:52;9.97;;;4.67;;
50647;SDS011;36617;52.002;6.034;2023-03-24T05:55:17;8.53;;;4.53;;
50647;SDS011;36617;52.002;6.034;2023-03-24T05:57:43;8.98;;;4.40;;
50647;SDS011;36617;52.002;6.034;2023-03-24T06:00:09;10.50;;;4.43;;
50647;SDS011;36617;52.002;6.034;2023-03-24T06:02:40;8.98;;;4.30;;
50647;SDS011;36617;52.002;6.034;2023-03-24T06:05:06;8.07;;;4.68;;
50647;SDS011;36617;52.002;6.034;2023-03-24T06:07:32;7.70;;;4.13;;
50647;SDS011;36617;52.002;6.034;2023-03-24T06:09:57;8.20;;;4.07;;
50647;SDS011;36617;52.002;6.034;2023-03-24T06:12:27;8.77;;;4.63;;
50647;SDS011;36617;52.002;6.034;2023-03-24T06:14:52;8.67;;;4.53;;
50647;SDS011;36617;52.002;6.034;2023-03-24T06:17:17;7.78;;;4.20;;
50647;SDS011;36617;52.002;6.034;2023-03-24T06:19:45;8.98;;;4.25;;
50647;SDS011;36617;52.002;6.034;2023-03-24T06:22:14;8.27;;;4.00;;
50647;SDS011;36617;52.002;6.034;2023-03-24T06:24:39;7.32;;;4.00;;
50647;SDS011;36617;52.002;6.034;2023-03-24T06:27:04;8.20;;;4.00;;
50647;SDS011;36617;52.002;6.034;2023-03-24T06:29:33;8.27;;;3.55;;
50647;SDS011;36617;52.002;6.034;2023-03-24T06:31:58;7.80;;;3.57;;
50647;SDS011;36617;52.002;6.034;2023-03-24T06:34:23;7.90;;;3.90;;
50647;SDS011;36617;52.002;6.034;2023-03-24T06:36:53;8.68;;;3.80;;
50647;SDS011;36617;52.002;6.034;2023-03-24T06:39:18;8.63;;;3.97;;
50647;SDS011;36617;52.002;6.034;2023-03-24T06:41:44;7.13;;;3.77;;
50647;SDS011;36617;52.002;6.034;2023-03-24T06:44:09;7.83;;;3.90;;
50647;SDS011;36617;52.002;6.034;2023-03-24T06:46:34;8.00;;;3.37;;
50647;SDS011;36617;52.002;6.034;2023-03-24T06:48:59;8.10;;;3.33;;
50647;SDS011;36617;52.002;6.034;2023-03-24T06:51:25;7.07;;;3.40;;
50647;SDS011;36617;52.002;6.034;2023-03-24T06:53:50;7.83;;;3.20;;
50647;SDS011;36617;52.002;6.034;2023-03-24T06:56:15;7.13;;;3.00;;
50647;SDS011;36617;52.002;6.034;2023-03-24T06:58:41;7.40;;;3.10;;
50647;SDS011;36617;52.002;6.034;2023-03-24T07:01:07;7.55;;;3.40;;
50647;SDS011;36617;52.002;6.034;2023-03-24T07:03:32;8.13;;;3.53;;
50647;SDS011;36617;52.002;6.034;2023-03-24T07:05:57;7.73;;;3.07;;
50647;SDS011;36617;52.002;6.034;2023-03-24T07:08:23;7.75;;;3.38;;
50647;SDS011;36617;52.002;6.034;2023-03-24T07:10:48;7.15;;;3.42;;
50647;SDS011;36617;52.002;6.034;2023-03-24T07:13:14;7.28;;;3.45;;
50647;SDS011;36617;52.002;6.034;2023-03-24T07:15:39;7.07;;;3.37;;
50647;SDS011;36617;52.002;6.034;2023-03-24T07:18:04;7.07;;;3.13;;
50647;SDS011;36617;52.002;6.034;2023-03-24T07:20:30;6.63;;;3.10;;
50647;SDS011;36617;52.002;6.034;2023-03-24T07:22:56;7.17;;;3.20;;
50647;SDS011;36617;52.002;6.034;2023-03-24T07:25:21;6.90;;;2.93;;
50647;SDS011;36617;52.002;6.034;2023-03-24T07:27:46;6.90;;;3.20;;
50647;SDS011;36617;52.002;6.034;2023-03-24T07:30:12;7.13;;;2.90;;
50647;SDS011;36617;52.002;6.034;2023-03-24T07:32:37;6.63;;;2.92;;
50647;SDS011;36617;52.002;6.034;2023-03-24T07:35:06;6.78;;;2.95;;
50647;SDS011;36617;52.002;6.034;2023-03-24T07:37:32;6.43;;;2.90;;
50647;SDS011;36617;52.002;6.034;2023-03-24T07:39:57;6.93;;;3.20;;
50647;SDS011;36617;52.002;6.034;2023-03-24T07:42:22;6.32;;;3.00;;
50647;SDS011;36617;52.002;6.034;2023-03-24T07:44:47;6.60;;;3.10;;
50647;SDS011;36617;52.002;6.034;2023-03-24T07:47:13;6.30;;;2.90;;
50647;SDS011;36617;52.002;6.034;2023-03-24T07:49:38;5.77;;;2.70;;
50647;SDS011;36617;52.002;6.034;2023-03-24T07:52:03;6.53;;;3.00;;
50647;SDS011;36617;52.002;6.034;2023-03-24T07:54:31;6.65;;;2.63;;
50647;SDS011;36617;52.002;6.034;2023-03-24T07:56:57;5.60;;;2.60;;
50647;SDS011;36617;52.002;6.034;2023-03-24T07:59:22;7.03;;;2.83;;
50647;SDS011;36617;52.002;6.034;2023-03-24T08:01:48;7.87;;;2.57;;
50647;SDS011;36617;52.002;6.034;2023-03-24T08:04:16;9.70;;;2.85;;
50647;SDS011;36617;52.002;6.034;2023-03-24T08:06:41;6.83;;;2.60;;
50647;SDS011;36617;52.002;6.034;2023-03-24T08:09:07;6.30;;;2.73;;
50647;SDS011;36617;52.002;6.034;2023-03-24T08:11:33;6.68;;;2.60;;
50647;SDS011;36617;52.002;6.034;2023-03-24T08:13:59;6.75;;;2.20;;
50647;SDS011;36617;52.002;6.034;2023-03-24T08:16:25;6.13;;;2.30;;
50647;SDS011;36617;52.002;6.034;2023-03-24T08:18:50;6.17;;;2.40;;
50647;SDS011;36617;52.002;6.034;2023-03-24T08:21:16;5.95;;;2.15;;
50647;SDS011;36617;52.002;6.034;2023-03-24T08:23:41;5.67;;;2.20;;
50647;SDS011;36617;52.002;6.034;2023-03-24T08:26:06;6.55;;;2.35;;
50647;SDS011;36617;52.002;6.034;2023-03-24T08:28:34;7.00;;;2.30;;
50647;SDS011;36617;52.002;6.034;2023-03-24T08:30:59;6.27;;;2.43;;
50647;SDS011;36617;52.002;6.034;2023-03-24T08:33:25;6.45;;;2.20;;
50647;SDS011;36617;52.002;6.034;2023-03-24T08:35:50;5.40;;;2.10;;
50647;SDS011;36617;52.002;6.034;2023-03-24T08:38:16;6.40;;;2.25;;
50647;SDS011;36617;52.002;6.034;2023-03-24T08:40:41;6.80;;;2.40;;
50647;SDS011;36617;52.002;6.034;2023-03-24T08:43:07;6.07;;;2.30;;
50647;SDS011;36617;52.002;6.034;2023-03-24T08:45:33;6.00;;;2.00;;
50647;SDS011;36617;52.002;6.034;2023-03-24T08:48:00;6.30;;;2.20;;
50647;SDS011;36617;52.002;6.034;2023-03-24T08:50:27;6.13;;;2.30;;
50647;SDS011;36617;52.002;6.034;2023-03-24T08:52:52;5.70;;;2.20;;
50647;SDS011;36617;52.002;6.034;2023-03-24T08:55:18;5.73;;;2.10;;
50647;SDS011;36617;52.002;6.034;2023-03-24T08:57:43;5.73;;;2.10;;
50647;SDS011;36617;52.002;6.034;2023-03-24T09:00:09;5.33;;;2.00;;
50647;SDS011;36617;52.002;6.034;2023-03-24T09:02:44;5.55;;;2.10;;
50647;SDS011;36617;52.002;6.034;2023-03-24T09:05:10;5.13;;;2.15;;
50647;SDS011;36617;52.002;6.034;2023-03-24T09:07:37;6.35;;;1.90;;
50647;SDS011;36617;52.002;6.034;2023-03-24T09:10:03;5.18;;;1.95;;
50647;SDS011;36617;52.002;6.034;2023-03-24T09:12:28;6.30;;;2.05;;
50647;SDS011;36617;52.002;6.034;2023-03-24T09:14:54;6.30;;;2.30;;
50647;SDS011;36617;52.002;6.034;2023-03-24T09:17:19;5.33;;;1.90;;
50647;SDS011;36617;52.002;6.034;2023-03-24T09:19:44;5.77;;;1.83;;
50647;SDS011;36617;52.002;6.034;2023-03-24T09:22:11;5.43;;;1.95;;
50647;SDS011;36617;52.002;6.034;2023-03-24T09:24:36;7.43;;;2.10;;
50647;SDS011;36617;52.002;6.034;2023-03-24T09:27:01;5.33;;;1.87;;
50647;SDS011;36617;52.002;6.034;2023-03-24T09:29:28;4.95;;;1.92;;
50647;SDS011;36617;52.002;6.034;2023-03-24T09:31:54;7.90;;;2.03;;
50647;SDS011;36617;52.002;6.034;2023-03-24T09:34:20;6.03;;;2.10;;
50647;SDS011;36617;52.002;6.034;2023-03-24T09:36:46;5.33;;;1.90;;
50647;SDS011;36617;52.002;6.034;2023-03-24T09:39:11;7.32;;;2.03;;
50647;SDS011;36617;52.002;6.034;2023-03-24T09:41:36;6.33;;;1.90;;
50647;SDS011;36617;52.002;6.034;2023-03-24T09:48:55;5.85;;;1.70;;
50647;SDS011;36617;52.002;6.034;2023-03-24T09:51:27;5.90;;;2.00;;
50647;SDS011;36617;52.002;6.034;2023-03-24T09:56:34;5.15;;;1.80;;
50647;SDS011;36617;52.002;6.034;2023-03-24T09:59:02;7.15;;;2.10;;
50647;SDS011;36617;52.002;6.034;2023-03-24T12:04:53;4.22;;;1.50;;
50647;SDS011;36617;52.002;6.034;2023-03-24T12:09:58;3.90;;;1.27;;
50647;SDS011;36617;52.002;6.034;2023-03-24T12:17:39;5.07;;;1.50;;
50647;SDS011;36617;52.002;6.034;2023-03-24T12:20:11;4.00;;;1.30;;
50647;SDS011;36617;52.002;6.034;2023-03-24T12:25:24;4.32;;;1.38;;
50647;SDS011;36617;52.002;6.034;2023-03-24T12:30:37;5.70;;;1.50;;
50647;SDS011;36617;52.002;6.034;2023-03-24T12:36:11;5.47;;;1.45;;
50647;SDS011;36617;52.002;6.034;2023-03-24T12:43:36;5.35;;;1.50;;
50647;SDS011;36617;52.002;6.034;2023-03-24T12:46:10;5.75;;;1.30;;
50647;SDS011;36617;52.002;6.034;2023-03-24T12:48:44;5.40;;;1.30;;
50647;SDS011;36617;52.002;6.034;2023-03-24T12:51:21;6.05;;;1.50;;
50647;SDS011;36617;52.002;6.034;2023-03-24T12:56:34;6.85;;;1.48;;
50647;SDS011;36617;52.002;6.034;2023-03-24T12:59:03;9.77;;;1.60;;
50647;SDS011;36617;52.002;6.034;2023-03-24T13:06:42;4.70;;;1.20;;
50647;SDS011;36617;52.002;6.034;2023-03-24T13:11:51;4.78;;;1.30;;
50647;SDS011;36617;52.002;6.034;2023-03-24T13:14:20;4.13;;;1.33;;
50647;SDS011;36617;52.002;6.034;2023-03-24T13:16:46;5.10;;;1.30;;
50647;SDS011;36617;52.002;6.034;2023-03-24T13:19:20;6.68;;;1.38;;
50647;SDS011;36617;52.002;6.034;2023-03-24T13:21:47;4.57;;;1.25;;
50647;SDS011;36617;52.002;6.034;2023-03-24T13:24:13;4.17;;;1.20;;
50647;SDS011;36617;52.002;6.034;2023-03-24T13:26:59;3.87;;;1.20;;
50647;SDS011;36617;52.002;6.034;2023-03-24T13:29:36;3.78;;;1.40;;
50647;SDS011;36617;52.002;6.034;2023-03-24T13:32:09;3.53;;;1.33;;
50647;SDS011;36617;52.002;6.034;2023-03-24T13:34:36;3.73;;;1.37;;
50647;SDS011;36617;52.002;6.034;2023-03-24T13:37:12;3.78;;;1.30;;
50647;SDS011;36617;52.002;6.034;2023-03-24T13:39:38;4.47;;;1.30;;
50647;SDS011;36617;52.002;6.034;2023-03-24T13:42:04;3.63;;;1.30;;
50647;SDS011;36617;52.002;6.034;2023-03-24T13:49:32;4.28;;;1.40;;
50647;SDS011;36617;52.002;6.034;2023-03-24T13:52:01;3.53;;;1.30;;
50647;SDS011;36617;52.002;6.034;2023-03-24T13:54:26;3.65;;;1.20;;
50647;SDS011;36617;52.002;6.034;2023-03-24T14:02:15;3.55;;;1.40;;
50647;SDS011;36617;52.002;6.034;2023-03-24T14:15:20;3.57;;;1.40;;
50647;SDS011;36617;52.002;6.034;2023-03-24T14:17:46;3.40;;;1.23;;
50647;SDS011;36617;52.002;6.034;2023-03-24T14:20:15;4.53;;;1.40;;
50647;SDS011;36617;52.002;6.034;2023-03-24T14:22:47;3.78;;;1.35;;
50647;SDS011;36617;52.002;6.034;2023-03-24T14:27:42;4.40;;;1.35;;
50647;SDS011;36617;52.002;6.034;2023-03-24T14:32:36;3.67;;;1.10;;
50647;SDS011;36617;52.002;6.034;2023-03-24T14:35:02;3.30;;;1.33;;
50647;SDS011;36617;52.002;6.034;2023-03-24T14:37:28;3.83;;;1.30;;
50647;SDS011;36617;52.002;6.034;2023-03-24T14:39:54;3.23;;;1.30;;
50647;SDS011;36617;52.002;6.034;2023-03-24T14:43:03;4.00;;;1.35;;
50647;SDS011;36617;52.002;6.034;2023-03-24T14:47:57;3.28;;;1.17;;
50647;SDS011;36617;52.002;6.034;2023-03-24T14:50:23;3.65;;;1.30;;
50647;SDS011;36617;52.002;6.034;2023-03-24T14:52:53;2.92;;;1.30;;
50647;SDS011;36617;52.002;6.034;2023-03-24T14:55:19;3.28;;;1.30;;
50647;SDS011;36617;52.002;6.034;2023-03-24T14:57:52;2.75;;;1.33;;
50647;SDS011;36617;52.002;6.034;2023-03-24T15:00:38;5.93;;;1.55;;
50647;SDS011;36617;52.002;6.034;2023-03-24T15:05:49;11.50;;;4.27;;
50647;SDS011;36617;52.002;6.034;2023-03-24T15:08:21;12.90;;;5.83;;
50647;SDS011;36617;52.002;6.034;2023-03-24T15:13:28;11.63;;;5.38;;
50647;SDS011;36617;52.002;6.034;2023-03-24T15:15:54;13.88;;;7.07;;
50647;SDS011;36617;52.002;6.034;2023-03-24T15:18:20;32.95;;;26.98;;
50647;SDS011;36617;52.002;6.034;2023-03-24T15:20:48;43.33;;;38.72;;
50647;SDS011;36617;52.002;6.034;2023-03-24T15:23:16;43.63;;;39.20;;
50647;SDS011;36617;52.002;6.034;2023-03-24T15:25:41;41.40;;;36.83;;
50647;SDS011;36617;52.002;6.034;2023-03-24T15:28:20;40.83;;;36.30;;
50647;SDS011;36617;52.002;6.034;2023-03-24T15:30:46;39.45;;;35.17;;
50647;SDS011;36617;52.002;6.034;2023-03-24T15:33:12;38.70;;;34.50;;
50647;SDS011;36617;52.002;6.034;2023-03-24T15:35:38;37.63;;;32.88;;
50647;SDS011;36617;52.002;6.034;2023-03-24T15:38:03;37.20;;;32.42;;
50647;SDS011;36617;52.002;6.034;2023-03-24T15:40:29;38.57;;;32.57;;
50647;SDS011;36617;52.002;6.034;2023-03-24T15:42:55;35.95;;;31.13;;
50647;SDS011;36617;52.002;6.034;2023-03-24T15:45:27;36.03;;;30.65;;
50647;SDS011;36617;52.002;6.034;2023-03-24T15:47:53;34.50;;;29.63;;
50647;SDS011;36617;52.002;6.034;2023-03-24T15:50:27;32.93;;;28.63;;
50647;SDS011;36617;52.002;6.034;2023-03-24T15:53:00;32.47;;;28.55;;
50647;SDS011;36617;52.002;6.034;2023-03-24T15:55:35;32.55;;;28.02;;
50647;SDS011;36617;52.002;6.034;2023-03-24T15:58:22;31.77;;;27.52;;
50647;SDS011;36617;52.002;6.034;2023-03-24T16:00:46;31.90;;;27.73;;
50647;SDS011;36617;52.002;6.034;2023-03-24T16:03:14;29.15;;;24.95;;
50647;SDS011;36617;52.002;6.034;2023-03-24T16:05:45;30.63;;;26.08;;
50647;SDS011;36617;52.002;6.034;2023-03-24T16:08:45;29.60;;;25.00;;
50647;SDS011;36617;52.002;6.034;2023-03-24T16:11:06;27.77;;;24.17;;
50647;SDS011;36617;52.002;6.034;2023-03-24T16:13:34;28.40;;;23.40;;
50647;SDS011;36617;52.002;6.034;2023-03-24T16:18:37;26.58;;;22.25;;
50647;SDS011;36617;52.002;6.034;2023-03-24T16:23:37;26.10;;;21.75;;
50647;SDS011;36617;52.002;6.034;2023-03-24T16:26:02;25.33;;;20.90;;
50647;SDS011;36617;52.002;6.034;2023-03-24T16:28:28;24.77;;;20.37;;
50647;SDS011;36617;52.002;6.034;2023-03-24T16:30:57;24.50;;;19.90;;
50647;SDS011;36617;52.002;6.034;2023-03-24T16:33:23;23.23;;;18.38;;
50647;SDS011;36617;52.002;6.034;2023-03-24T16:35:48;23.83;;;20.37;;
50647;SDS011;36617;52.002;6.034;2023-03-24T16:38:14;23.43;;;19.93;;
50647;SDS011;36617;52.002;6.034;2023-03-24T16:40:45;23.70;;;18.42;;
50647;SDS011;36617;52.002;6.034;2023-03-24T16:43:12;21.33;;;17.43;;
50647;SDS011;36617;52.002;6.034;2023-03-24T16:45:39;22.08;;;17.90;;
50647;SDS011;36617;52.002;6.034;2023-03-24T16:48:04;21.97;;;17.23;;
50647;SDS011;36617;52.002;6.034;2023-03-24T16:52:55;22.77;;;16.87;;
50647;SDS011;36617;52.002;6.034;2023-03-24T16:55:20;22.00;;;16.53;;
50647;SDS011;36617;52.002;6.034;2023-03-24T16:57:45;19.03;;;15.20;;
50647;SDS011;36617;52.002;6.034;2023-03-24T17:00:10;20.63;;;15.63;;
50647;SDS011;36617;52.002;6.034;2023-03-24T17:02:36;20.53;;;15.43;;
50647;SDS011;36617;52.002;6.034;2023-03-24T17:05:08;18.57;;;15.23;;
50647;SDS011;36617;52.002;6.034;2023-03-24T17:07:35;19.75;;;15.30;;
50647;SDS011;36617;52.002;6.034;2023-03-24T17:10:00;19.30;;;15.13;;
50647;SDS011;36617;52.002;6.034;2023-03-24T17:12:25;17.97;;;13.77;;
50647;SDS011;36617;52.002;6.034;2023-03-24T17:14:51;18.55;;;14.05;;
50647;SDS011;36617;52.002;6.034;2023-03-24T17:17:16;17.63;;;14.03;;
50647;SDS011;36617;52.002;6.034;2023-03-24T17:19:42;16.63;;;13.17;;
50647;SDS011;36617;52.002;6.034;2023-03-24T17:22:07;17.40;;;13.27;;
50647;SDS011;36617;52.002;6.034;2023-03-24T17:24:35;17.38;;;13.00;;
50647;SDS011;36617;52.002;6.034;2023-03-24T17:27:00;16.38;;;12.27;;
50647;SDS011;36617;52.002;6.034;2023-03-24T17:29:27;16.23;;;12.30;;
50647;SDS011;36617;52.002;6.034;2023-03-24T17:31:52;16.83;;;12.63;;
50647;SDS011;36617;52.002;6.034;2023-03-24T17:34:17;16.33;;;12.23;;
50647;SDS011;36617;52.002;6.034;2023-03-24T17:36:47;14.80;;;11.83;;
50647;SDS011;36617;52.002;6.034;2023-03-24T17:39:14;14.75;;;11.82;;
50647;SDS011;36617;52.002;6.034;2023-03-24T17:41:40;15.82;;;12.27;;
50647;SDS011;36617;52.002;6.034;2023-03-24T17:44:06;16.13;;;11.55;;
50647;SDS011;36617;52.002;6.034;2023-03-24T17:46:31;16.07;;;11.20;;
50647;SDS011;36617;52.002;6.034;2023-03-24T17:48:56;14.53;;;11.23;;
50647;SDS011;36617;52.002;6.034;2023-03-24T17:51:21;14.93;;;10.47;;
50647;SDS011;36617;52.002;6.034;2023-03-24T17:53:46;13.83;;;10.60;;
50647;SDS011;36617;52.002;6.034;2023-03-24T17:56:12;14.00;;;10.47;;
50647;SDS011;36617;52.002;6.034;2023-03-24T17:58:37;12.67;;;9.80;;
50647;SDS011;36617;52.002;6.034;2023-03-24T18:01:02;12.67;;;8.87;;
50647;SDS011;36617;52.002;6.034;2023-03-24T18:03:31;13.32;;;9.13;;
50647;SDS011;36617;52.002;6.034;2023-03-24T18:06:02;12.17;;;8.60;;
50647;SDS011;36617;52.002;6.034;2023-03-24T18:08:28;12.07;;;7.80;;
50647;SDS011;36617;52.002;6.034;2023-03-24T18:10:54;10.70;;;7.50;;
50647;SDS011;36617;52.002;6.034;2023-03-24T18:13:25;10.70;;;7.40;;
50647;SDS011;36617;52.002;6.034;2023-03-24T18:15:52;11.20;;;7.10;;
50647;SDS011;36617;52.002;6.034;2023-03-24T18:18:17;10.67;;;6.70;;
50647;SDS011;36617;52.002;6.034;2023-03-24T18:20:43;13.13;;;8.53;;
50647;SDS011;36617;52.002;6.034;2023-03-24T18:23:08;11.50;;;7.63;;
50647;SDS011;36617;52.002;6.034;2023-03-24T18:25:33;11.87;;;7.03;;
50647;SDS011;36617;52.002;6.034;2023-03-24T18:27:58;10.83;;;6.43;;
50647;SDS011;36617;52.002;6.034;2023-03-24T18:30:23;10.20;;;6.67;;
50647;SDS011;36617;52.002;6.034;2023-03-24T18:32:49;9.30;;;6.10;;
50647;SDS011;36617;52.002;6.034;2023-03-24T18:35:14;10.63;;;6.00;;
50647;SDS011;36617;52.002;6.034;2023-03-24T18:37:40;8.95;;;5.80;;
50647;SDS011;36617;52.002;6.034;2023-03-24T18:40:05;9.60;;;5.30;;
50647;SDS011;36617;52.002;6.034;2023-03-24T18:42:32;9.02;;;5.50;;
50647;SDS011;36617;52.002;6.034;2023-03-24T18:44:57;11.00;;;5.40;;
50647;SDS011;36617;52.002;6.034;2023-03-24T18:47:22;10.93;;;5.63;;
50647;SDS011;36617;52.002;6.034;2023-03-24T18:49:48;9.80;;;5.10;;
50647;SDS011;36617;52.002;6.034;2023-03-24T18:52:14;9.03;;;5.00;;
50647;SDS011;36617;52.002;6.034;2023-03-24T18:54:41;9.20;;;4.77;;
50647;SDS011;36617;52.002;6.034;2023-03-24T18:57:07;9.03;;;4.57;;
50647;SDS011;36617;52.002;6.034;2023-03-24T18:59:32;9.03;;;4.47;;